createdAt,value
2023-01-29T00:04:30.895Z,54.95
2023-01-29T00:09:23.665Z,54.82
2023-01-29T00:14:16.631Z,54.69
2023-01-29T00:19:09.915Z,54.63
2023-01-29T00:24:02.926Z,54.64
2023-01-29T00:29:01.014Z,54.77
2023-01-29T00:33:54.135Z,54.86
2023-01-29T00:38:54.933Z,54.54
2023-01-29T00:44:08.208Z,54.45
2023-01-29T00:49:02.072Z,54.71
2023-01-29T00:53:58.317Z,54.59
2023-01-29T00:58:51.197Z,54.62
2023-01-29T01:03:45.047Z,54.49
2023-01-29T01:08:56.147Z,54.65
2023-01-29T01:13:48.528Z,54.50
2023-01-29T01:18:41.474Z,54.31
2023-01-29T01:23:34.687Z,54.42
2023-01-29T01:28:28.564Z,54.38
2023-01-29T01:33:21.139Z,54.36
2023-01-29T01:38:14.151Z,54.24
2023-01-29T01:43:10.138Z,54.17
2023-01-29T01:48:08.862Z,53.90
2023-01-29T01:53:11.367Z,53.92
2023-01-29T01:58:12.638Z,53.87
2023-01-29T02:03:24.648Z,53.66
2023-01-29T02:08:53.297Z,53.67
2023-01-29T02:13:46.576Z,53.47
2023-01-29T02:18:40.222Z,53.63
2023-01-29T02:23:47.328Z,53.39
2023-01-29T02:28:53.242Z,53.28
2023-01-29T02:33:56.157Z,53.27
2023-01-29T02:39:20.176Z,53.24
2023-01-29T02:44:24.756Z,52.88
2023-01-29T02:49:28.212Z,53.07
2023-01-29T02:54:25.910Z,52.84
2023-01-29T02:59:36.166Z,53.01
2023-01-29T03:04:35.106Z,53.02
2023-01-29T03:09:38.079Z,53.11
2023-01-29T03:14:55.549Z,52.88
2023-01-29T03:19:49.819Z,52.95
2023-01-29T03:25:09.255Z,52.91
2023-01-29T03:30:27.905Z,52.97
2023-01-29T03:35:35.843Z,52.76
2023-01-29T03:40:37.776Z,52.92
2023-01-29T03:45:33.622Z,52.81
2023-01-29T03:50:41.503Z,52.97
2023-01-29T03:55:44.790Z,52.70
2023-01-29T04:00:45.794Z,52.80
2023-01-29T04:06:17.870Z,52.83
2023-01-29T04:11:22.593Z,52.71
2023-01-29T04:16:20.193Z,52.76
2023-01-29T04:21:32.095Z,52.59
2023-01-29T04:26:31.566Z,52.73
2023-01-29T04:31:50.761Z,52.56
2023-01-29T04:37:03.939Z,52.38
2023-01-29T04:42:11.293Z,52.50
2023-01-29T04:47:21.426Z,52.33
2023-01-29T04:52:44.642Z,52.22
2023-01-29T04:58:01.507Z,52.24
2023-01-29T05:02:54.548Z,51.99
2023-01-29T05:07:49.122Z,52.07
2023-01-29T05:12:47.173Z,52.27
2023-01-29T05:17:40.817Z,51.97
2023-01-29T05:22:37.939Z,51.91
2023-01-29T05:27:54.124Z,51.95
2023-01-29T05:32:47.867Z,51.74
2023-01-29T05:37:41.421Z,51.71
2023-01-29T05:42:35.234Z,51.69
2023-01-29T05:47:28.812Z,51.66
2023-01-29T05:52:21.887Z,51.65
2023-01-29T05:57:15.821Z,51.51
2023-01-29T06:02:09.158Z,51.43
2023-01-29T06:07:04.297Z,51.43
2023-01-29T06:11:57.280Z,51.31
2023-01-29T06:16:50.100Z,51.31
2023-01-29T06:21:44.634Z,51.22
2023-01-29T06:26:39.583Z,50.97
2023-01-29T06:31:38.899Z,50.87
2023-01-29T06:36:33.274Z,50.81
2023-01-29T06:41:26.242Z,50.76
2023-01-29T06:46:20.142Z,50.54
2023-01-29T06:51:13.674Z,50.59
2023-01-29T06:56:06.622Z,50.43
2023-01-29T07:01:08.098Z,50.40
2023-01-29T07:06:00.781Z,50.28
2023-01-29T07:10:53.574Z,50.38
2023-01-29T07:15:46.760Z,50.59
2023-01-29T07:20:43.051Z,50.70
2023-01-29T07:25:36.273Z,50.80
2023-01-29T07:30:29.724Z,51.00
2023-01-29T07:35:22.968Z,51.00
2023-01-29T07:40:16.500Z,43.91
2023-01-29T07:45:09.663Z,43.75
2023-01-29T07:50:03.350Z,46.13
2023-01-29T07:54:55.772Z,46.58
2023-01-29T07:59:48.655Z,35.02
2023-01-29T08:04:42.435Z,33.16
2023-01-29T08:09:35.190Z,33.05
2023-01-29T08:14:28.385Z,33.67
2023-01-29T08:19:21.824Z,32.22
2023-01-29T08:24:15.478Z,32.06
2023-01-29T08:29:08.891Z,32.69
2023-01-29T08:34:02.382Z,36.05
2023-01-29T08:38:56.275Z,32.94
2023-01-29T08:43:48.800Z,32.66
2023-01-29T08:48:42.768Z,33.60
2023-01-29T08:53:36.021Z,33.19
2023-01-29T08:58:30.121Z,33.35
2023-01-29T09:03:23.539Z,33.46
2023-01-29T09:08:16.370Z,33.95
2023-01-29T09:13:10.320Z,33.80
2023-01-29T09:18:07.288Z,33.96
2023-01-29T09:23:04.965Z,33.71
2023-01-29T09:27:58.700Z,34.02
2023-01-29T09:32:53.881Z,33.42
2023-01-29T09:37:51.549Z,32.94
2023-01-29T09:42:51.189Z,33.97
2023-01-29T09:47:45.508Z,33.32
2023-01-29T09:52:59.598Z,32.99
2023-01-29T09:57:58.104Z,33.87
2023-01-29T10:03:08.462Z,33.22
2023-01-29T10:08:12.456Z,33.37
2023-01-29T10:13:37.648Z,33.67
2023-01-29T10:18:50.134Z,36.09
2023-01-29T10:24:14.439Z,37.92
2023-01-29T10:29:08.610Z,38.02
2023-01-29T10:34:08.178Z,38.47
2023-01-29T10:39:01.688Z,39.26
2023-01-29T10:44:20.891Z,39.59
2023-01-29T10:49:22.769Z,39.74
2023-01-29T10:54:39.871Z,40.16
2023-01-29T10:59:45.068Z,40.34
2023-01-29T11:04:38.385Z,40.46
2023-01-29T11:09:39.357Z,40.85
2023-01-29T11:14:43.413Z,40.97
2023-01-29T11:19:44.936Z,41.12
2023-01-29T11:24:37.535Z,41.24
2023-01-29T11:29:48.058Z,41.60
2023-01-29T11:34:59.097Z,41.32
2023-01-29T11:39:52.173Z,42.12
2023-01-29T11:44:44.984Z,42.63
2023-01-29T11:49:39.516Z,43.50
2023-01-29T11:54:39.764Z,44.82
2023-01-29T11:59:41.116Z,46.71
2023-01-29T12:04:33.949Z,47.99
2023-01-29T12:09:29.940Z,47.97
2023-01-29T12:14:34.815Z,47.52
2023-01-29T12:19:43.815Z,48.11
2023-01-29T12:24:44.572Z,47.91
2023-01-29T12:29:58.247Z,47.32
2023-01-29T12:35:05.664Z,46.96
2023-01-29T12:39:58.646Z,47.01
2023-01-29T12:44:56.886Z,46.84
2023-01-29T12:49:57.093Z,47.80
2023-01-29T12:54:58.738Z,49.47
2023-01-29T13:00:19.316Z,51.37
2023-01-29T13:05:25.906Z,50.29
2023-01-29T13:10:24.097Z,49.70
2023-01-29T13:15:34.151Z,49.88
2023-01-29T13:20:32.481Z,47.45
2023-01-29T13:25:26.661Z,48.16
2023-01-29T13:30:36.997Z,48.22
2023-01-29T13:35:30.459Z,47.90
2023-01-29T13:40:27.392Z,47.22
2023-01-29T13:45:42.437Z,46.44
2023-01-29T13:50:43.349Z,45.54
2023-01-29T13:55:37.726Z,44.81
2023-01-29T14:00:36.385Z,44.57
2023-01-29T14:05:32.551Z,42.30
2023-01-29T14:10:27.480Z,44.15
2023-01-29T14:15:26.130Z,43.75
2023-01-29T14:20:22.321Z,43.35
2023-01-29T14:25:23.825Z,43.02
2023-01-29T14:30:19.413Z,42.67
2023-01-29T14:35:25.416Z,41.55
2023-01-29T14:40:20.328Z,41.81
2023-01-29T14:45:25.108Z,41.61
2023-01-29T14:50:29.724Z,42.57
2023-01-29T14:55:36.479Z,42.08
2023-01-29T15:00:33.397Z,42.77
2023-01-29T15:05:30.001Z,42.32
2023-01-29T15:10:38.271Z,42.17
2023-01-29T15:15:31.209Z,42.69
2023-01-29T15:20:46.021Z,42.92
2023-01-29T15:25:50.133Z,42.77
2023-01-29T15:30:45.100Z,42.63
2023-01-29T15:35:40.774Z,43.51
2023-01-29T15:40:34.724Z,44.51
2023-01-29T15:45:31.760Z,46.07
2023-01-29T15:50:25.473Z,46.60
2023-01-29T15:55:21.855Z,47.10
2023-01-29T16:00:28.048Z,48.68
2023-01-29T16:05:24.452Z,48.68
2023-01-29T16:10:21.208Z,49.24
2023-01-29T16:15:21.856Z,50.62
2023-01-29T16:20:42.809Z,49.67
2023-01-29T16:26:03.126Z,50.61
2023-01-29T16:31:01.928Z,50.47
2023-01-29T16:35:57.168Z,50.44
2023-01-29T16:41:08.638Z,51.05
2023-01-29T16:46:25.404Z,51.21
2023-01-29T16:51:36.953Z,51.37
2023-01-29T16:56:34.015Z,51.47
2023-01-29T17:01:33.650Z,51.51
2023-01-29T17:06:28.147Z,51.60
2023-01-29T17:11:30.202Z,51.70
2023-01-29T17:16:34.323Z,51.84
2023-01-29T17:21:27.384Z,51.82
2023-01-29T17:26:20.991Z,51.99
2023-01-29T17:31:14.265Z,52.44
2023-01-29T17:36:12.586Z,52.44
2023-01-29T17:41:13.846Z,52.32
2023-01-29T17:46:06.801Z,52.38
2023-01-29T17:51:03.242Z,51.95
2023-01-29T17:55:56.030Z,52.10
2023-01-29T18:00:49.501Z,51.86
2023-01-29T18:05:43.463Z,51.84
2023-01-29T18:10:36.629Z,51.76
2023-01-29T18:15:30.884Z,51.27
2023-01-29T18:20:26.502Z,51.09
2023-01-29T18:25:19.847Z,51.32
2023-01-29T18:30:13.588Z,51.98
2023-01-29T18:35:07.136Z,52.71
2023-01-29T18:39:59.840Z,52.74
2023-01-29T18:44:52.314Z,52.70
2023-01-29T18:49:45.315Z,52.81
2023-01-29T18:54:38.244Z,52.22
2023-01-29T18:59:31.150Z,52.38
2023-01-29T19:04:25.187Z,52.33
2023-01-29T19:09:17.738Z,50.96
2023-01-29T19:14:12.048Z,50.66
2023-01-29T19:19:05.804Z,49.21
2023-01-29T19:23:58.313Z,48.46
2023-01-29T19:28:51.764Z,46.63
2023-01-29T19:33:44.631Z,46.54
2023-01-29T19:38:38.838Z,45.75
2023-01-29T19:43:32.698Z,43.92
2023-01-29T19:48:26.696Z,44.79
2023-01-29T19:53:19.993Z,46.02
2023-01-29T19:58:13.826Z,46.22
2023-01-29T20:03:07.297Z,47.14
2023-01-29T20:08:00.487Z,47.45
2023-01-29T20:12:53.963Z,47.51
2023-01-29T20:17:47.210Z,48.13
2023-01-29T20:22:40.816Z,48.45
2023-01-29T20:27:33.149Z,48.36
2023-01-29T20:32:26.403Z,48.66
2023-01-29T20:37:20.467Z,48.81
2023-01-29T20:42:13.904Z,48.91
2023-01-29T20:47:07.412Z,48.92
2023-01-29T20:52:00.552Z,48.77
2023-01-29T20:56:53.069Z,49.04
2023-01-29T21:01:47.395Z,48.83
2023-01-29T21:06:40.086Z,48.96
2023-01-29T21:11:34.082Z,48.84
2023-01-29T21:16:29.040Z,48.84
2023-01-29T21:21:22.257Z,48.68
2023-01-29T21:26:15.196Z,48.72
2023-01-29T21:31:15.428Z,48.48
2023-01-29T21:36:10.482Z,48.46
2023-01-29T21:41:06.359Z,48.39
2023-01-29T21:46:01.729Z,48.20
2023-01-29T21:50:54.789Z,48.32
2023-01-29T21:55:48.959Z,48.04
2023-01-29T22:00:41.716Z,48.05
2023-01-29T22:05:34.902Z,47.85
2023-01-29T22:10:29.133Z,47.85
2023-01-29T22:15:24.047Z,47.83
2023-01-29T22:20:18.459Z,47.60
2023-01-29T22:25:12.096Z,47.66
2023-01-29T22:30:05.685Z,47.54
2023-01-29T22:34:59.087Z,47.38
2023-01-29T22:39:51.909Z,47.40
2023-01-29T22:44:50.310Z,47.45
2023-01-29T22:49:45.806Z,47.46
2023-01-29T22:54:44.211Z,47.57
2023-01-29T22:59:36.815Z,47.40
2023-01-29T23:04:30.256Z,47.41
2023-01-29T23:09:22.924Z,47.30
2023-01-29T23:14:16.204Z,47.21
2023-01-29T23:19:09.001Z,47.19
2023-01-29T23:24:01.515Z,47.21
2023-01-29T23:28:54.181Z,47.55
2023-01-29T23:33:46.952Z,47.28
2023-01-29T23:38:39.941Z,47.19
2023-01-29T23:43:33.632Z,47.10
2023-01-29T23:48:26.550Z,47.10
2023-01-29T23:53:20.010Z,46.80
2023-01-29T23:58:12.382Z,46.66
